This is the latest recevied weather packets stored in our database for station/object HS8AFA. If no packets are shown the sender has not sent any weather packets the latest 10 day(s).
| Time | Temp. | Humidity | Pressure | Rain* | Wind** | Luminosity | Snow |
|---|---|---|---|---|---|---|---|
| 1777606819 | 34.44° C | 63% | 1011.9 hPa | 0 mm | - | - | - |
| 1777606220 | 33.89° C | 68% | 1011.9 hPa | 0 mm | - | - | - |
| 1777605636 | 33.89° C | 72% | 1012.1 hPa | 0 mm | - | - | - |
| 1777600218 | 31.11° C | 100% | 1011.7 hPa | 0 mm | - | - | - |
| 1777599020 | 30.56° C | 100% | 1011.7 hPa | 0 mm | - | - | - |
| 1777597217 | 29.44° C | 100% | 1011.3 hPa | 0 mm | - | - | - |
| 1777593018 | 27.22° C | 100% | 1010.1 hPa | 0 mm | - | - | - |
| 1777588220 | 27.22° C | 100% | 1009.6 hPa | 0 mm | - | - | - |
| 1777587016 | 27.22° C | 100% | 1009.5 hPa | 0 mm | - | - | - |
| 1777585818 | 27.22° C | 100% | 1009.2 hPa | 0 mm | - | - | - |
| 1777584620 | 27.22° C | 100% | 1009.2 hPa | 0 mm | - | - | - |
| 1777581619 | 27.78° C | 100% | 1009.4 hPa | 0 mm | - | - | - |
| 1777579217 | 27.78° C | 100% | 1009.8 hPa | 0 mm | - | - | - |
| 1777574418 | 28.89° C | 100% | 1010.6 hPa | 0 mm | - | - | - |
| 1777572017 | 28.89° C | 100% | 1011.2 hPa | 0 mm | - | - | - |
| 1777570818 | 28.89° C | 100% | 1011.3 hPa | 0 mm | - | - | - |
| 1777558820 | 31.67° C | 100% | 1011.4 hPa | 0 mm | - | - | - |
| 1777555220 | 32.22° C | 91% | 1009.8 hPa | 0 mm | - | - | - |
| 1777552818 | 32.22° C | 98% | 1009.3 hPa | 0 mm | - | - | - |
| 1777551021 | 32.78° C | 100% | 1008.5 hPa | 0 mm | - | - | - |
| 1777546237 | 33.89° C | 100% | 1008.2 hPa | 0 mm | - | - | - |
| 1777545617 | 34.44° C | 100% | 1008.3 hPa | 0 mm | - | - | - |
| 1777542617 | 35.56° C | 84% | 1007.8 hPa | 0 mm | - | - | - |
| 1777542017 | 36.11° C | 79% | 1007.9 hPa | 0 mm | - | - | - |
| 1777539661 | 36.67° C | 79% | 1008.3 hPa | 0 mm | - | - | - |
* Rain latest hour (hover to see other rain measurements)
** Current wind speed in m/s (hover to see current wind gust speed)